sensor_id;sensor_type;location;lat;lon;timestamp;P1;durP1;ratioP1;P2;durP2;ratioP2
17451;SDS011;8843;48.838;9.324;2022-09-12T00:01:04;3.97;;;3.63;;
17451;SDS011;8843;48.838;9.324;2022-09-12T00:03:33;4.50;;;4.10;;
17451;SDS011;8843;48.838;9.324;2022-09-12T00:06:00;4.03;;;3.67;;
17451;SDS011;8843;48.838;9.324;2022-09-12T00:08:32;4.60;;;4.00;;
17451;SDS011;8843;48.838;9.324;2022-09-12T00:11:02;4.63;;;4.20;;
17451;SDS011;8843;48.838;9.324;2022-09-12T00:13:32;4.80;;;4.30;;
17451;SDS011;8843;48.838;9.324;2022-09-12T00:16:00;5.10;;;4.60;;
17451;SDS011;8843;48.838;9.324;2022-09-12T00:18:27;7.53;;;4.10;;
17451;SDS011;8843;48.838;9.324;2022-09-12T00:20:54;4.30;;;3.90;;
17451;SDS011;8843;48.838;9.324;2022-09-12T00:23:21;4.40;;;4.00;;
17451;SDS011;8843;48.838;9.324;2022-09-12T00:25:48;6.70;;;4.40;;
17451;SDS011;8843;48.838;9.324;2022-09-12T00:28:16;4.53;;;4.10;;
17451;SDS011;8843;48.838;9.324;2022-09-12T00:30:44;4.40;;;3.87;;
17451;SDS011;8843;48.838;9.324;2022-09-12T00:33:14;6.07;;;4.13;;
17451;SDS011;8843;48.838;9.324;2022-09-12T00:35:42;4.03;;;3.73;;
17451;SDS011;8843;48.838;9.324;2022-09-12T00:38:10;4.17;;;3.77;;
17451;SDS011;8843;48.838;9.324;2022-09-12T00:40:37;4.37;;;3.97;;
17451;SDS011;8843;48.838;9.324;2022-09-12T00:43:05;4.53;;;4.10;;
17451;SDS011;8843;48.838;9.324;2022-09-12T00:45:37;6.50;;;3.80;;
17451;SDS011;8843;48.838;9.324;2022-09-12T00:48:04;4.80;;;4.40;;
17451;SDS011;8843;48.838;9.324;2022-09-12T00:50:31;6.70;;;4.70;;
17451;SDS011;8843;48.838;9.324;2022-09-12T00:52:59;6.07;;;4.30;;
17451;SDS011;8843;48.838;9.324;2022-09-12T00:55:31;4.77;;;4.37;;
17451;SDS011;8843;48.838;9.324;2022-09-12T00:58:02;5.70;;;4.13;;
17451;SDS011;8843;48.838;9.324;2022-09-12T01:00:34;4.73;;;4.33;;
17451;SDS011;8843;48.838;9.324;2022-09-12T01:03:03;5.93;;;4.60;;
17451;SDS011;8843;48.838;9.324;2022-09-12T01:05:32;5.37;;;4.40;;
17451;SDS011;8843;48.838;9.324;2022-09-12T01:08:02;5.90;;;3.70;;
17451;SDS011;8843;48.838;9.324;2022-09-12T01:10:30;4.97;;;4.47;;
17451;SDS011;8843;48.838;9.324;2022-09-12T01:13:00;4.73;;;4.00;;
17451;SDS011;8843;48.838;9.324;2022-09-12T01:15:30;4.63;;;3.80;;
17451;SDS011;8843;48.838;9.324;2022-09-12T01:18:01;5.03;;;4.40;;
17451;SDS011;8843;48.838;9.324;2022-09-12T01:20:44;5.50;;;4.17;;
17451;SDS011;8843;48.838;9.324;2022-09-12T01:23:35;4.63;;;4.23;;
17451;SDS011;8843;48.838;9.324;2022-09-12T01:26:41;4.63;;;4.23;;
17451;SDS011;8843;48.838;9.324;2022-09-12T01:29:30;4.33;;;3.93;;
17451;SDS011;8843;48.838;9.324;2022-09-12T01:32:11;4.13;;;3.73;;
17451;SDS011;8843;48.838;9.324;2022-09-12T01:34:47;5.23;;;4.23;;
17451;SDS011;8843;48.838;9.324;2022-09-12T01:37:20;4.03;;;3.60;;
17451;SDS011;8843;48.838;9.324;2022-09-12T01:39:57;4.43;;;4.07;;
17451;SDS011;8843;48.838;9.324;2022-09-12T01:42:33;4.30;;;3.90;;
17451;SDS011;8843;48.838;9.324;2022-09-12T01:45:10;4.27;;;3.57;;
17451;SDS011;8843;48.838;9.324;2022-09-12T01:47:43;4.83;;;4.43;;
17451;SDS011;8843;48.838;9.324;2022-09-12T01:50:15;5.17;;;3.77;;
17451;SDS011;8843;48.838;9.324;2022-09-12T01:52:46;4.53;;;4.13;;
17451;SDS011;8843;48.838;9.324;2022-09-12T01:55:17;3.90;;;3.60;;
17451;SDS011;8843;48.838;9.324;2022-09-12T01:57:48;4.43;;;4.03;;
17451;SDS011;8843;48.838;9.324;2022-09-12T02:00:18;4.40;;;3.90;;
17451;SDS011;8843;48.838;9.324;2022-09-12T02:02:48;4.73;;;4.03;;
17451;SDS011;8843;48.838;9.324;2022-09-12T02:05:19;4.40;;;3.77;;
17451;SDS011;8843;48.838;9.324;2022-09-12T02:07:50;4.10;;;3.80;;
17451;SDS011;8843;48.838;9.324;2022-09-12T02:10:22;4.20;;;3.60;;
17451;SDS011;8843;48.838;9.324;2022-09-12T02:12:52;4.63;;;4.10;;
17451;SDS011;8843;48.838;9.324;2022-09-12T02:15:25;4.60;;;4.20;;
17451;SDS011;8843;48.838;9.324;2022-09-12T02:17:59;4.57;;;4.17;;
17451;SDS011;8843;48.838;9.324;2022-09-12T02:20:30;5.00;;;4.60;;
17451;SDS011;8843;48.838;9.324;2022-09-12T02:23:02;4.47;;;4.00;;
17451;SDS011;8843;48.838;9.324;2022-09-12T02:25:35;4.67;;;4.20;;
17451;SDS011;8843;48.838;9.324;2022-09-12T02:28:05;3.97;;;3.67;;
17451;SDS011;8843;48.838;9.324;2022-09-12T02:30:40;5.87;;;4.30;;
17451;SDS011;8843;48.838;9.324;2022-09-12T02:33:16;4.63;;;4.17;;
17451;SDS011;8843;48.838;9.324;2022-09-12T02:35:51;4.30;;;3.90;;
17451;SDS011;8843;48.838;9.324;2022-09-12T02:38:23;4.97;;;4.30;;
17451;SDS011;8843;48.838;9.324;2022-09-12T02:40:53;5.27;;;3.80;;
17451;SDS011;8843;48.838;9.324;2022-09-12T02:43:20;7.83;;;4.57;;
17451;SDS011;8843;48.838;9.324;2022-09-12T02:45:47;3.80;;;3.50;;
17451;SDS011;8843;48.838;9.324;2022-09-12T02:48:15;4.33;;;3.90;;
17451;SDS011;8843;48.838;9.324;2022-09-12T02:50:46;4.73;;;4.23;;
17451;SDS011;8843;48.838;9.324;2022-09-12T02:53:13;4.87;;;3.77;;
17451;SDS011;8843;48.838;9.324;2022-09-12T02:55:40;4.73;;;4.27;;
17451;SDS011;8843;48.838;9.324;2022-09-12T02:58:09;3.73;;;3.43;;
17451;SDS011;8843;48.838;9.324;2022-09-12T03:00:39;3.37;;;3.07;;
17451;SDS011;8843;48.838;9.324;2022-09-12T03:03:26;4.33;;;3.93;;
17451;SDS011;8843;48.838;9.324;2022-09-12T03:06:02;4.67;;;3.80;;
17451;SDS011;8843;48.838;9.324;2022-09-12T03:11:36;4.00;;;3.47;;
17451;SDS011;8843;48.838;9.324;2022-09-12T03:14:27;3.53;;;3.23;;
17451;SDS011;8843;48.838;9.324;2022-09-12T03:17:07;4.73;;;3.60;;
17451;SDS011;8843;48.838;9.324;2022-09-12T03:19:42;4.07;;;3.77;;
17451;SDS011;8843;48.838;9.324;2022-09-12T03:22:18;4.37;;;3.97;;
17451;SDS011;8843;48.838;9.324;2022-09-12T03:24:50;6.03;;;4.10;;
17451;SDS011;8843;48.838;9.324;2022-09-12T03:27:24;4.10;;;3.70;;
17451;SDS011;8843;48.838;9.324;2022-09-12T03:29:55;4.63;;;4.03;;
17451;SDS011;8843;48.838;9.324;2022-09-12T03:35:09;6.00;;;3.30;;
17451;SDS011;8843;48.838;9.324;2022-09-12T03:37:37;4.20;;;3.83;;
17451;SDS011;8843;48.838;9.324;2022-09-12T03:40:04;6.43;;;4.40;;
17451;SDS011;8843;48.838;9.324;2022-09-12T03:42:32;5.20;;;4.70;;
17451;SDS011;8843;48.838;9.324;2022-09-12T03:44:59;4.57;;;4.07;;
17451;SDS011;8843;48.838;9.324;2022-09-12T03:47:26;5.40;;;4.30;;
17451;SDS011;8843;48.838;9.324;2022-09-12T03:49:53;5.00;;;4.27;;
17451;SDS011;8843;48.838;9.324;2022-09-12T03:52:21;5.87;;;4.53;;
17451;SDS011;8843;48.838;9.324;2022-09-12T03:54:48;4.60;;;4.20;;
17451;SDS011;8843;48.838;9.324;2022-09-12T03:57:15;5.10;;;4.70;;
17451;SDS011;8843;48.838;9.324;2022-09-12T03:59:42;4.00;;;3.70;;
17451;SDS011;8843;48.838;9.324;2022-09-12T04:02:09;3.80;;;3.50;;
17451;SDS011;8843;48.838;9.324;2022-09-12T04:04:37;5.00;;;3.93;;
17451;SDS011;8843;48.838;9.324;2022-09-12T04:07:07;4.60;;;4.20;;
17451;SDS011;8843;48.838;9.324;2022-09-12T04:09:36;4.33;;;3.93;;
17451;SDS011;8843;48.838;9.324;2022-09-12T04:12:03;5.33;;;3.70;;
17451;SDS011;8843;48.838;9.324;2022-09-12T04:14:30;7.53;;;4.23;;
17451;SDS011;8843;48.838;9.324;2022-09-12T04:16:57;5.40;;;4.43;;
17451;SDS011;8843;48.838;9.324;2022-09-12T04:19:24;5.13;;;4.43;;
17451;SDS011;8843;48.838;9.324;2022-09-12T04:21:52;5.73;;;4.50;;
17451;SDS011;8843;48.838;9.324;2022-09-12T04:24:19;4.50;;;4.10;;
17451;SDS011;8843;48.838;9.324;2022-09-12T04:26:47;5.80;;;4.07;;
17451;SDS011;8843;48.838;9.324;2022-09-12T04:29:14;6.83;;;4.03;;
17451;SDS011;8843;48.838;9.324;2022-09-12T04:31:41;4.63;;;4.13;;
17451;SDS011;8843;48.838;9.324;2022-09-12T04:34:09;4.80;;;4.40;;
17451;SDS011;8843;48.838;9.324;2022-09-12T04:36:36;5.27;;;4.30;;
17451;SDS011;8843;48.838;9.324;2022-09-12T04:39:03;4.63;;;4.23;;
17451;SDS011;8843;48.838;9.324;2022-09-12T04:41:32;5.67;;;4.30;;
17451;SDS011;8843;48.838;9.324;2022-09-12T04:44:02;8.83;;;4.37;;
17451;SDS011;8843;48.838;9.324;2022-09-12T04:46:31;4.87;;;4.47;;
17451;SDS011;8843;48.838;9.324;2022-09-12T04:48:59;7.60;;;4.73;;
17451;SDS011;8843;48.838;9.324;2022-09-12T04:51:27;6.57;;;4.60;;
17451;SDS011;8843;48.838;9.324;2022-09-12T04:53:56;4.27;;;3.77;;
17451;SDS011;8843;48.838;9.324;2022-09-12T04:56:25;4.00;;;3.70;;
17451;SDS011;8843;48.838;9.324;2022-09-12T04:58:53;5.20;;;3.70;;
17451;SDS011;8843;48.838;9.324;2022-09-12T05:01:22;4.33;;;3.87;;
17451;SDS011;8843;48.838;9.324;2022-09-12T05:03:50;4.00;;;3.60;;
17451;SDS011;8843;48.838;9.324;2022-09-12T05:06:18;5.07;;;3.30;;
17451;SDS011;8843;48.838;9.324;2022-09-12T05:08:45;3.70;;;3.40;;
17451;SDS011;8843;48.838;9.324;2022-09-12T05:11:13;4.13;;;3.83;;
17451;SDS011;8843;48.838;9.324;2022-09-12T05:13:42;5.03;;;4.50;;
17451;SDS011;8843;48.838;9.324;2022-09-12T05:16:10;4.30;;;4.00;;
17451;SDS011;8843;48.838;9.324;2022-09-12T05:18:40;3.53;;;3.23;;
17451;SDS011;8843;48.838;9.324;2022-09-12T05:21:09;4.57;;;4.10;;
17451;SDS011;8843;48.838;9.324;2022-09-12T05:23:38;4.23;;;3.83;;
17451;SDS011;8843;48.838;9.324;2022-09-12T05:26:05;4.50;;;4.10;;
17451;SDS011;8843;48.838;9.324;2022-09-12T05:28:33;4.50;;;3.70;;
17451;SDS011;8843;48.838;9.324;2022-09-12T05:31:02;4.33;;;3.70;;
17451;SDS011;8843;48.838;9.324;2022-09-12T05:33:31;4.97;;;3.67;;
17451;SDS011;8843;48.838;9.324;2022-09-12T05:36:00;4.20;;;3.80;;
17451;SDS011;8843;48.838;9.324;2022-09-12T05:38:27;6.57;;;3.60;;
17451;SDS011;8843;48.838;9.324;2022-09-12T05:41:02;4.30;;;3.57;;
17451;SDS011;8843;48.838;9.324;2022-09-12T05:43:30;4.60;;;4.10;;
17451;SDS011;8843;48.838;9.324;2022-09-12T05:45:59;5.70;;;3.73;;
17451;SDS011;8843;48.838;9.324;2022-09-12T05:48:27;4.43;;;3.70;;
17451;SDS011;8843;48.838;9.324;2022-09-12T05:50:59;4.07;;;3.43;;
17451;SDS011;8843;48.838;9.324;2022-09-12T05:53:26;4.43;;;3.63;;
17451;SDS011;8843;48.838;9.324;2022-09-12T05:56:00;4.03;;;3.63;;
17451;SDS011;8843;48.838;9.324;2022-09-12T05:58:31;4.27;;;3.97;;
17451;SDS011;8843;48.838;9.324;2022-09-12T06:01:02;4.00;;;3.70;;
17451;SDS011;8843;48.838;9.324;2022-09-12T06:03:31;5.20;;;3.80;;
17451;SDS011;8843;48.838;9.324;2022-09-12T06:06:02;7.77;;;4.67;;
17451;SDS011;8843;48.838;9.324;2022-09-12T06:08:30;3.87;;;3.53;;
17451;SDS011;8843;48.838;9.324;2022-09-12T06:10:58;5.17;;;4.67;;
17451;SDS011;8843;48.838;9.324;2022-09-12T06:13:25;5.07;;;4.57;;
17451;SDS011;8843;48.838;9.324;2022-09-12T06:15:52;4.40;;;4.00;;
17451;SDS011;8843;48.838;9.324;2022-09-12T06:18:19;3.97;;;3.63;;
17451;SDS011;8843;48.838;9.324;2022-09-12T06:20:46;5.73;;;4.60;;
17451;SDS011;8843;48.838;9.324;2022-09-12T06:23:14;4.23;;;3.83;;
17451;SDS011;8843;48.838;9.324;2022-09-12T06:25:47;6.30;;;5.70;;
17451;SDS011;8843;48.838;9.324;2022-09-12T06:28:14;6.37;;;5.00;;
17451;SDS011;8843;48.838;9.324;2022-09-12T06:30:41;6.37;;;5.10;;
17451;SDS011;8843;48.838;9.324;2022-09-12T06:33:08;5.73;;;5.23;;
17451;SDS011;8843;48.838;9.324;2022-09-12T06:35:35;6.33;;;5.47;;
17451;SDS011;8843;48.838;9.324;2022-09-12T06:38:02;5.67;;;5.17;;
17451;SDS011;8843;48.838;9.324;2022-09-12T06:40:31;5.87;;;5.27;;
17451;SDS011;8843;48.838;9.324;2022-09-12T06:42:58;5.77;;;4.77;;
17451;SDS011;8843;48.838;9.324;2022-09-12T06:45:25;5.67;;;5.07;;
17451;SDS011;8843;48.838;9.324;2022-09-12T06:47:53;5.63;;;5.03;;
17451;SDS011;8843;48.838;9.324;2022-09-12T06:50:20;6.00;;;5.30;;
17451;SDS011;8843;48.838;9.324;2022-09-12T06:52:47;6.67;;;5.57;;
17451;SDS011;8843;48.838;9.324;2022-09-12T06:55:15;5.47;;;4.97;;
17451;SDS011;8843;48.838;9.324;2022-09-12T06:57:43;6.63;;;5.30;;
17451;SDS011;8843;48.838;9.324;2022-09-12T07:00:11;6.37;;;5.77;;
17451;SDS011;8843;48.838;9.324;2022-09-12T07:02:38;6.00;;;5.40;;
17451;SDS011;8843;48.838;9.324;2022-09-12T07:05:06;7.20;;;6.33;;
17451;SDS011;8843;48.838;9.324;2022-09-12T07:07:35;8.10;;;6.60;;
17451;SDS011;8843;48.838;9.324;2022-09-12T07:10:02;7.53;;;6.83;;
17451;SDS011;8843;48.838;9.324;2022-09-12T07:12:30;8.43;;;7.03;;
17451;SDS011;8843;48.838;9.324;2022-09-12T07:14:59;8.67;;;7.13;;
17451;SDS011;8843;48.838;9.324;2022-09-12T07:17:26;7.40;;;6.67;;
17451;SDS011;8843;48.838;9.324;2022-09-12T07:19:52;8.03;;;6.43;;
17451;SDS011;8843;48.838;9.324;2022-09-12T07:22:19;8.03;;;7.20;;
17451;SDS011;8843;48.838;9.324;2022-09-12T07:24:46;7.50;;;6.80;;
17451;SDS011;8843;48.838;9.324;2022-09-12T07:27:14;7.93;;;7.13;;
17451;SDS011;8843;48.838;9.324;2022-09-12T07:29:41;8.37;;;6.50;;
17451;SDS011;8843;48.838;9.324;2022-09-12T07:32:12;9.90;;;6.60;;
17451;SDS011;8843;48.838;9.324;2022-09-12T07:34:39;8.07;;;7.37;;
17451;SDS011;8843;48.838;9.324;2022-09-12T07:37:06;7.63;;;6.63;;
17451;SDS011;8843;48.838;9.324;2022-09-12T07:39:33;6.77;;;6.17;;
17451;SDS011;8843;48.838;9.324;2022-09-12T07:42:01;10.43;;;6.60;;
17451;SDS011;8843;48.838;9.324;2022-09-12T07:44:28;7.30;;;6.60;;
17451;SDS011;8843;48.838;9.324;2022-09-12T07:46:55;7.50;;;6.10;;
17451;SDS011;8843;48.838;9.324;2022-09-12T07:49:23;7.10;;;6.03;;
17451;SDS011;8843;48.838;9.324;2022-09-12T07:51:50;6.87;;;6.10;;
17451;SDS011;8843;48.838;9.324;2022-09-12T07:54:17;6.43;;;5.83;;
17451;SDS011;8843;48.838;9.324;2022-09-12T07:56:44;7.47;;;6.60;;
17451;SDS011;8843;48.838;9.324;2022-09-12T07:59:11;6.90;;;6.00;;
17451;SDS011;8843;48.838;9.324;2022-09-12T08:01:38;7.20;;;6.47;;
17451;SDS011;8843;48.838;9.324;2022-09-12T08:04:05;7.00;;;6.27;;
17451;SDS011;8843;48.838;9.324;2022-09-12T08:06:33;8.10;;;6.27;;
17451;SDS011;8843;48.838;9.324;2022-09-12T08:09:01;7.23;;;6.20;;
17451;SDS011;8843;48.838;9.324;2022-09-12T08:11:29;7.30;;;6.60;;
17451;SDS011;8843;48.838;9.324;2022-09-12T08:13:56;6.47;;;5.50;;
17451;SDS011;8843;48.838;9.324;2022-09-12T08:16:24;6.87;;;6.10;;
17451;SDS011;8843;48.838;9.324;2022-09-12T08:18:52;7.27;;;5.93;;
17451;SDS011;8843;48.838;9.324;2022-09-12T08:21:20;6.20;;;5.60;;
17451;SDS011;8843;48.838;9.324;2022-09-12T08:23:52;7.73;;;5.47;;
17451;SDS011;8843;48.838;9.324;2022-09-12T08:26:20;5.60;;;4.83;;
17451;SDS011;8843;48.838;9.324;2022-09-12T08:28:47;8.17;;;5.67;;
17451;SDS011;8843;48.838;9.324;2022-09-12T08:31:15;5.93;;;5.33;;
17451;SDS011;8843;48.838;9.324;2022-09-12T08:33:44;6.47;;;5.80;;
17451;SDS011;8843;48.838;9.324;2022-09-12T08:36:12;8.33;;;5.93;;
17451;SDS011;8843;48.838;9.324;2022-09-12T08:38:40;5.93;;;5.40;;
17451;SDS011;8843;48.838;9.324;2022-09-12T08:41:10;7.53;;;5.17;;
17451;SDS011;8843;48.838;9.324;2022-09-12T08:43:56;7.00;;;6.17;;
17451;SDS011;8843;48.838;9.324;2022-09-12T08:46:31;6.30;;;5.70;;
17451;SDS011;8843;48.838;9.324;2022-09-12T08:49:03;4.90;;;4.50;;
17451;SDS011;8843;48.838;9.324;2022-09-12T08:51:34;6.30;;;5.70;;
17451;SDS011;8843;48.838;9.324;2022-09-12T08:54:02;6.23;;;5.23;;
17451;SDS011;8843;48.838;9.324;2022-09-12T08:56:36;6.57;;;5.87;;
17451;SDS011;8843;48.838;9.324;2022-09-12T08:59:04;5.90;;;5.40;;
17451;SDS011;8843;48.838;9.324;2022-09-12T09:01:31;5.90;;;4.97;;
17451;SDS011;8843;48.838;9.324;2022-09-12T09:07:18;5.40;;;4.27;;
17451;SDS011;8843;48.838;9.324;2022-09-12T09:09:59;5.40;;;4.30;;
17451;SDS011;8843;48.838;9.324;2022-09-12T09:12:41;6.57;;;4.10;;
17451;SDS011;8843;48.838;9.324;2022-09-12T09:15:20;5.07;;;4.57;;
17451;SDS011;8843;48.838;9.324;2022-09-12T09:17:58;4.33;;;3.63;;
17451;SDS011;8843;48.838;9.324;2022-09-12T09:20:29;5.57;;;4.60;;
17451;SDS011;8843;48.838;9.324;2022-09-12T09:23:02;3.97;;;3.57;;
17451;SDS011;8843;48.838;9.324;2022-09-12T09:25:39;4.83;;;4.33;;
17451;SDS011;8843;48.838;9.324;2022-09-12T09:28:16;4.77;;;4.30;;
17451;SDS011;8843;48.838;9.324;2022-09-12T09:30:48;5.23;;;4.70;;
17451;SDS011;8843;48.838;9.324;2022-09-12T09:33:17;5.20;;;4.70;;
17451;SDS011;8843;48.838;9.324;2022-09-12T09:35:47;4.57;;;4.17;;
17451;SDS011;8843;48.838;9.324;2022-09-12T09:38:22;5.27;;;4.13;;
17451;SDS011;8843;48.838;9.324;2022-09-12T09:41:00;4.23;;;3.83;;
17451;SDS011;8843;48.838;9.324;2022-09-12T09:43:37;4.00;;;3.70;;
17451;SDS011;8843;48.838;9.324;2022-09-12T09:46:04;4.33;;;3.80;;
17451;SDS011;8843;48.838;9.324;2022-09-12T09:48:32;3.73;;;3.40;;
17451;SDS011;8843;48.838;9.324;2022-09-12T09:51:02;4.10;;;3.80;;
17451;SDS011;8843;48.838;9.324;2022-09-12T09:53:33;3.80;;;3.33;;
17451;SDS011;8843;48.838;9.324;2022-09-12T09:56:08;3.93;;;3.20;;
17451;SDS011;8843;48.838;9.324;2022-09-12T09:58:39;3.83;;;2.97;;
17451;SDS011;8843;48.838;9.324;2022-09-12T10:01:11;3.43;;;3.13;;
17451;SDS011;8843;48.838;9.324;2022-09-12T10:03:46;4.47;;;3.03;;
17451;SDS011;8843;48.838;9.324;2022-09-12T10:06:25;5.40;;;3.50;;
17451;SDS011;8843;48.838;9.324;2022-09-12T10:09:03;3.33;;;3.07;;
17451;SDS011;8843;48.838;9.324;2022-09-12T10:11:33;8.13;;;3.33;;
17451;SDS011;8843;48.838;9.324;2022-09-12T10:14:02;3.00;;;2.70;;
17451;SDS011;8843;48.838;9.324;2022-09-12T10:16:30;3.07;;;2.60;;
17451;SDS011;8843;48.838;9.324;2022-09-12T10:18:59;3.47;;;2.90;;
17451;SDS011;8843;48.838;9.324;2022-09-12T10:21:29;3.10;;;2.57;;
17451;SDS011;8843;48.838;9.324;2022-09-12T10:24:03;2.43;;;2.17;;
17451;SDS011;8843;48.838;9.324;2022-09-12T10:26:40;2.33;;;2.03;;
17451;SDS011;8843;48.838;9.324;2022-09-12T10:29:14;2.70;;;2.27;;
17451;SDS011;8843;48.838;9.324;2022-09-12T10:31:43;2.93;;;2.10;;
17451;SDS011;8843;48.838;9.324;2022-09-12T10:37:02;2.10;;;1.90;;
17451;SDS011;8843;48.838;9.324;2022-09-12T10:39:31;2.00;;;1.83;;
17451;SDS011;8843;48.838;9.324;2022-09-12T10:42:00;1.90;;;1.80;;
17451;SDS011;8843;48.838;9.324;2022-09-12T10:44:29;3.03;;;2.23;;
17451;SDS011;8843;48.838;9.324;2022-09-12T10:46:58;3.10;;;1.70;;
17451;SDS011;8843;48.838;9.324;2022-09-12T10:49:27;2.40;;;2.00;;
17451;SDS011;8843;48.838;9.324;2022-09-12T10:51:56;1.97;;;1.87;;
17451;SDS011;8843;48.838;9.324;2022-09-12T10:54:25;2.37;;;1.77;;
17451;SDS011;8843;48.838;9.324;2022-09-12T10:56:57;2.17;;;1.93;;
17451;SDS011;8843;48.838;9.324;2022-09-12T10:59:35;2.87;;;2.20;;
17451;SDS011;8843;48.838;9.324;2022-09-12T11:02:18;1.77;;;1.67;;
17451;SDS011;8843;48.838;9.324;2022-09-12T11:04:54;2.20;;;1.80;;
17451;SDS011;8843;48.838;9.324;2022-09-12T11:07:38;3.50;;;2.13;;
17451;SDS011;8843;48.838;9.324;2022-09-12T11:10:17;2.90;;;2.03;;
17451;SDS011;8843;48.838;9.324;2022-09-12T11:12:57;2.73;;;2.10;;
17451;SDS011;8843;48.838;9.324;2022-09-12T11:15:37;4.07;;;1.67;;
17451;SDS011;8843;48.838;9.324;2022-09-12T11:18:20;1.70;;;1.60;;
17451;SDS011;8843;48.838;9.324;2022-09-12T11:21:04;1.83;;;1.67;;
17451;SDS011;8843;48.838;9.324;2022-09-12T11:23:52;1.83;;;1.73;;
17451;SDS011;8843;48.838;9.324;2022-09-12T11:26:33;2.00;;;1.80;;
17451;SDS011;8843;48.838;9.324;2022-09-12T11:29:12;2.27;;;1.90;;
17451;SDS011;8843;48.838;9.324;2022-09-12T11:34:48;2.53;;;1.70;;
17451;SDS011;8843;48.838;9.324;2022-09-12T11:37:27;1.70;;;1.60;;
17451;SDS011;8843;48.838;9.324;2022-09-12T11:40:16;1.83;;;1.73;;
17451;SDS011;8843;48.838;9.324;2022-09-12T11:42:52;1.77;;;1.67;;
17451;SDS011;8843;48.838;9.324;2022-09-12T11:45:24;4.50;;;1.90;;
17451;SDS011;8843;48.838;9.324;2022-09-12T11:47:56;1.67;;;1.57;;
17451;SDS011;8843;48.838;9.324;2022-09-12T11:50:31;2.40;;;1.90;;
17451;SDS011;8843;48.838;9.324;2022-09-12T11:53:00;1.50;;;1.40;;
17451;SDS011;8843;48.838;9.324;2022-09-12T11:55:36;1.60;;;1.50;;
17451;SDS011;8843;48.838;9.324;2022-09-12T11:58:10;1.40;;;1.30;;
17451;SDS011;8843;48.838;9.324;2022-09-12T12:00:39;2.57;;;1.30;;
17451;SDS011;8843;48.838;9.324;2022-09-12T12:03:12;1.43;;;1.33;;
17451;SDS011;8843;48.838;9.324;2022-09-12T12:05:46;1.70;;;1.60;;
17451;SDS011;8843;48.838;9.324;2022-09-12T12:08:18;1.50;;;1.40;;
17451;SDS011;8843;48.838;9.324;2022-09-12T12:10:47;2.13;;;1.50;;
17451;SDS011;8843;48.838;9.324;2022-09-12T12:13:18;2.20;;;1.50;;
17451;SDS011;8843;48.838;9.324;2022-09-12T12:15:51;2.47;;;1.40;;
17451;SDS011;8843;48.838;9.324;2022-09-12T12:18:24;1.13;;;1.10;;
17451;SDS011;8843;48.838;9.324;2022-09-12T12:20:53;1.60;;;1.50;;
17451;SDS011;8843;48.838;9.324;2022-09-12T12:23:25;1.67;;;1.40;;
17451;SDS011;8843;48.838;9.324;2022-09-12T12:25:55;1.63;;;1.53;;
17451;SDS011;8843;48.838;9.324;2022-09-12T12:31:22;1.40;;;1.30;;
17451;SDS011;8843;48.838;9.324;2022-09-12T12:36:50;2.50;;;1.60;;
17451;SDS011;8843;48.838;9.324;2022-09-12T12:48:13;1.40;;;1.30;;
17451;SDS011;8843;48.838;9.324;2022-09-12T12:50:43;1.40;;;1.30;;
17451;SDS011;8843;48.838;9.324;2022-09-12T12:53:16;2.20;;;1.40;;
17451;SDS011;8843;48.838;9.324;2022-09-12T12:55:47;2.57;;;1.43;;
17451;SDS011;8843;48.838;9.324;2022-09-12T12:58:21;1.40;;;1.30;;
17451;SDS011;8843;48.838;9.324;2022-09-12T13:01:02;1.23;;;1.23;;
17451;SDS011;8843;48.838;9.324;2022-09-12T13:03:36;1.23;;;1.23;;
17451;SDS011;8843;48.838;9.324;2022-09-12T13:06:06;1.50;;;1.40;;
17451;SDS011;8843;48.838;9.324;2022-09-12T13:08:53;1.60;;;1.50;;
17451;SDS011;8843;48.838;9.324;2022-09-12T13:11:28;1.40;;;1.30;;
17451;SDS011;8843;48.838;9.324;2022-09-12T13:13:59;1.50;;;1.20;;
17451;SDS011;8843;48.838;9.324;2022-09-12T13:16:28;1.40;;;1.30;;
17451;SDS011;8843;48.838;9.324;2022-09-12T13:18:56;1.83;;;1.40;;
17451;SDS011;8843;48.838;9.324;2022-09-12T13:21:29;1.20;;;1.10;;
17451;SDS011;8843;48.838;9.324;2022-09-12T13:24:01;3.00;;;1.40;;
17451;SDS011;8843;48.838;9.324;2022-09-12T13:26:33;1.30;;;1.20;;
17451;SDS011;8843;48.838;9.324;2022-09-12T13:29:09;1.43;;;1.10;;
17451;SDS011;8843;48.838;9.324;2022-09-12T13:31:37;1.30;;;1.20;;
17451;SDS011;8843;48.838;9.324;2022-09-12T13:34:04;1.40;;;1.30;;
17451;SDS011;8843;48.838;9.324;2022-09-12T13:36:41;1.57;;;1.47;;
17451;SDS011;8843;48.838;9.324;2022-09-12T13:39:28;1.63;;;1.53;;
17451;SDS011;8843;48.838;9.324;2022-09-12T13:42:27;2.23;;;1.37;;
17451;SDS011;8843;48.838;9.324;2022-09-12T13:45:04;1.80;;;1.60;;
17451;SDS011;8843;48.838;9.324;2022-09-12T13:47:35;1.67;;;1.57;;
17451;SDS011;8843;48.838;9.324;2022-09-12T13:50:06;1.70;;;1.30;;
17451;SDS011;8843;48.838;9.324;2022-09-12T13:52:38;1.53;;;1.43;;
17451;SDS011;8843;48.838;9.324;2022-09-12T13:55:07;1.60;;;1.50;;
17451;SDS011;8843;48.838;9.324;2022-09-12T13:57:54;1.60;;;1.50;;
17451;SDS011;8843;48.838;9.324;2022-09-12T14:00:22;3.47;;;1.77;;
17451;SDS011;8843;48.838;9.324;2022-09-12T14:02:49;1.50;;;1.40;;
17451;SDS011;8843;48.838;9.324;2022-09-12T14:05:37;2.87;;;1.20;;
17451;SDS011;8843;48.838;9.324;2022-09-12T14:08:08;26.33;;;3.37;;
17451;SDS011;8843;48.838;9.324;2022-09-12T14:10:41;1.13;;;1.10;;
17451;SDS011;8843;48.838;9.324;2022-09-12T14:13:10;1.40;;;1.30;;
17451;SDS011;8843;48.838;9.324;2022-09-12T14:15:43;1.20;;;1.10;;
17451;SDS011;8843;48.838;9.324;2022-09-12T14:18:20;1.43;;;1.33;;
17451;SDS011;8843;48.838;9.324;2022-09-12T14:20:49;1.63;;;1.53;;
17451;SDS011;8843;48.838;9.324;2022-09-12T14:23:23;2.00;;;1.30;;
17451;SDS011;8843;48.838;9.324;2022-09-12T14:25:53;1.73;;;1.30;;
17451;SDS011;8843;48.838;9.324;2022-09-12T14:28:23;1.47;;;1.23;;
17451;SDS011;8843;48.838;9.324;2022-09-12T14:30:56;1.40;;;1.30;;
17451;SDS011;8843;48.838;9.324;2022-09-12T14:33:25;2.27;;;1.30;;
17451;SDS011;8843;48.838;9.324;2022-09-12T14:36:05;1.43;;;0.90;;
17451;SDS011;8843;48.838;9.324;2022-09-12T14:38:39;1.37;;;1.20;;
17451;SDS011;8843;48.838;9.324;2022-09-12T14:41:09;1.60;;;1.20;;
17451;SDS011;8843;48.838;9.324;2022-09-12T14:43:39;1.20;;;1.20;;
17451;SDS011;8843;48.838;9.324;2022-09-12T14:46:14;1.20;;;1.10;;
17451;SDS011;8843;48.838;9.324;2022-09-12T14:48:45;1.30;;;1.20;;
17451;SDS011;8843;48.838;9.324;2022-09-12T14:51:17;1.43;;;1.03;;
17451;SDS011;8843;48.838;9.324;2022-09-12T14:53:48;1.30;;;1.10;;
17451;SDS011;8843;48.838;9.324;2022-09-12T14:56:18;1.97;;;1.00;;
17451;SDS011;8843;48.838;9.324;2022-09-12T14:58:46;0.80;;;0.80;;
17451;SDS011;8843;48.838;9.324;2022-09-12T15:01:25;1.10;;;1.10;;
17451;SDS011;8843;48.838;9.324;2022-09-12T15:03:53;0.80;;;0.80;;
17451;SDS011;8843;48.838;9.324;2022-09-12T15:06:22;1.00;;;1.00;;
17451;SDS011;8843;48.838;9.324;2022-09-12T15:08:53;0.80;;;0.80;;
17451;SDS011;8843;48.838;9.324;2022-09-12T15:11:25;2.20;;;1.10;;
17451;SDS011;8843;48.838;9.324;2022-09-12T15:13:52;1.03;;;1.03;;
17451;SDS011;8843;48.838;9.324;2022-09-12T15:16:19;1.53;;;0.97;;
17451;SDS011;8843;48.838;9.324;2022-09-12T15:18:47;1.00;;;0.90;;
17451;SDS011;8843;48.838;9.324;2022-09-12T15:21:15;1.53;;;0.90;;
17451;SDS011;8843;48.838;9.324;2022-09-12T15:23:44;1.67;;;1.10;;
17451;SDS011;8843;48.838;9.324;2022-09-12T15:26:13;1.20;;;1.10;;
17451;SDS011;8843;48.838;9.324;2022-09-12T15:28:42;1.20;;;1.10;;
17451;SDS011;8843;48.838;9.324;2022-09-12T15:31:11;1.40;;;1.30;;
17451;SDS011;8843;48.838;9.324;2022-09-12T15:33:44;1.20;;;1.10;;
17451;SDS011;8843;48.838;9.324;2022-09-12T15:36:13;1.10;;;1.10;;
17451;SDS011;8843;48.838;9.324;2022-09-12T15:38:41;1.23;;;1.13;;
17451;SDS011;8843;48.838;9.324;2022-09-12T15:41:09;1.10;;;1.10;;
17451;SDS011;8843;48.838;9.324;2022-09-12T15:43:38;1.53;;;1.20;;
17451;SDS011;8843;48.838;9.324;2022-09-12T15:46:07;1.20;;;1.07;;
17451;SDS011;8843;48.838;9.324;2022-09-12T15:48:36;1.13;;;1.10;;
17451;SDS011;8843;48.838;9.324;2022-09-12T15:51:03;1.40;;;1.30;;
17451;SDS011;8843;48.838;9.324;2022-09-12T15:53:30;0.93;;;0.93;;